createdAt,value
2018-12-30T00:00:34.304Z,21.50
2018-12-30T00:01:34.257Z,21.56
2018-12-30T00:02:34.209Z,21.54
2018-12-30T00:03:34.164Z,21.61
2018-12-30T00:04:34.117Z,21.58
2018-12-30T00:05:34.071Z,21.54
2018-12-30T00:06:34.023Z,21.52
2018-12-30T00:07:33.977Z,21.53
2018-12-30T00:08:33.930Z,21.59
2018-12-30T00:09:33.883Z,21.53
2018-12-30T00:10:33.836Z,21.52
2018-12-30T00:11:33.800Z,21.62
2018-12-30T00:12:33.743Z,21.50
2018-12-30T00:13:33.698Z,21.54
2018-12-30T00:14:33.650Z,21.52
2018-12-30T00:15:33.603Z,21.64
2018-12-30T00:16:33.607Z,21.56
2018-12-30T00:17:33.510Z,21.61
2018-12-30T00:18:33.465Z,21.67
2018-12-30T00:19:42.282Z,21.56
2018-12-30T00:20:33.372Z,21.53
2018-12-30T00:21:33.329Z,21.52
2018-12-30T00:22:33.276Z,21.52
2018-12-30T00:23:33.231Z,21.59
2018-12-30T00:24:33.183Z,21.61
2018-12-30T00:25:33.137Z,21.52
2018-12-30T00:26:33.089Z,21.52
2018-12-30T00:27:33.043Z,21.59
2018-12-30T00:28:32.996Z,21.47
2018-12-30T00:29:32.950Z,21.62
2018-12-30T00:30:32.902Z,21.61
2018-12-30T00:31:32.856Z,21.50
2018-12-30T00:32:32.810Z,21.61
2018-12-30T00:33:32.763Z,21.56
2018-12-30T00:34:32.714Z,21.53
2018-12-30T00:35:32.669Z,21.53
2018-12-30T00:36:32.672Z,21.46
2018-12-30T00:37:32.575Z,21.59
2018-12-30T00:38:32.529Z,21.46
2018-12-30T00:39:32.800Z,21.47
2018-12-30T00:40:32.438Z,21.49
2018-12-30T00:41:32.388Z,21.54
2018-12-30T00:42:32.342Z,21.58
2018-12-30T00:43:32.296Z,21.56
2018-12-30T00:44:32.248Z,21.53
2018-12-30T00:45:32.203Z,21.58
2018-12-30T00:46:32.157Z,21.50
2018-12-30T00:47:32.109Z,21.58
2018-12-30T00:48:32.062Z,21.50
2018-12-30T00:49:32.017Z,21.59
2018-12-30T00:50:31.968Z,21.58
2018-12-30T00:51:31.922Z,21.53
2018-12-30T00:52:31.876Z,21.52
2018-12-30T00:53:31.829Z,21.53
2018-12-30T00:54:31.781Z,21.52
2018-12-30T00:55:31.735Z,21.61
2018-12-30T00:56:31.689Z,21.61
2018-12-30T00:57:31.642Z,21.52
2018-12-30T00:58:31.595Z,21.59
2018-12-30T00:59:31.598Z,21.58
2018-12-30T01:00:31.502Z,21.61
2018-12-30T01:01:31.455Z,21.58
2018-12-30T01:02:31.408Z,21.54
2018-12-30T01:03:31.362Z,21.49
2018-12-30T01:04:31.315Z,21.53
2018-12-30T01:05:31.269Z,21.59
2018-12-30T01:06:31.221Z,21.54
2018-12-30T01:07:31.175Z,21.53
2018-12-30T01:08:31.132Z,21.62
2018-12-30T01:09:31.131Z,21.58
2018-12-30T01:10:31.034Z,21.52
2018-12-30T01:11:30.990Z,21.52
2018-12-30T01:12:30.941Z,21.54
2018-12-30T01:13:30.895Z,21.53
2018-12-30T01:14:30.848Z,21.54
2018-12-30T01:15:30.801Z,21.61
2018-12-30T01:16:30.754Z,21.58
2018-12-30T01:17:30.708Z,21.52
2018-12-30T01:18:30.661Z,21.52
2018-12-30T01:19:30.618Z,21.62
2018-12-30T01:20:30.718Z,21.58
2018-12-30T01:21:30.521Z,21.54
2018-12-30T01:22:30.475Z,21.58
2018-12-30T01:23:30.427Z,21.59
2018-12-30T01:24:30.380Z,21.64
2018-12-30T01:25:30.334Z,21.56
2018-12-30T01:26:30.288Z,21.61
2018-12-30T01:27:30.240Z,21.53
2018-12-30T01:28:30.194Z,21.54
2018-12-30T01:29:30.147Z,21.62
2018-12-30T01:30:30.100Z,21.58
2018-12-30T01:31:30.054Z,21.58
2018-12-30T01:32:30.010Z,21.50
2018-12-30T01:33:29.963Z,21.59
2018-12-30T01:34:29.915Z,21.58
2018-12-30T01:35:29.867Z,21.61
2018-12-30T01:36:29.821Z,21.54
2018-12-30T01:37:29.779Z,21.53
2018-12-30T01:38:29.728Z,21.49
2018-12-30T01:39:29.680Z,21.52
2018-12-30T01:40:29.640Z,21.54
2018-12-30T01:41:29.586Z,21.61
2018-12-30T01:42:29.641Z,21.59
2018-12-30T01:43:29.493Z,21.59
2018-12-30T01:44:29.447Z,21.59
2018-12-30T01:45:29.401Z,21.59
2018-12-30T01:46:29.388Z,21.64
2018-12-30T01:47:29.307Z,21.53
2018-12-30T01:48:29.260Z,21.62
2018-12-30T01:49:29.226Z,21.62
2018-12-30T01:50:29.166Z,21.58
2018-12-30T01:51:32.939Z,21.54
2018-12-30T01:52:29.073Z,21.62
2018-12-30T01:53:29.027Z,21.61
2018-12-30T01:54:28.979Z,21.56
2018-12-30T01:55:28.932Z,21.54
2018-12-30T01:56:28.886Z,21.58
2018-12-30T01:57:28.840Z,21.62
2018-12-30T01:58:28.791Z,21.56
2018-12-30T01:59:28.746Z,21.58
2018-12-30T02:00:28.701Z,21.59
2018-12-30T02:01:28.652Z,21.65
2018-12-30T02:02:28.606Z,21.56
2018-12-30T02:03:28.876Z,21.58
2018-12-30T02:04:28.512Z,21.54
2018-12-30T02:05:28.466Z,21.54
2018-12-30T02:06:28.422Z,21.59
2018-12-30T02:07:28.371Z,21.61
2018-12-30T02:08:28.325Z,21.61
2018-12-30T02:09:28.279Z,21.61
2018-12-30T02:10:28.232Z,21.62
2018-12-30T02:11:28.185Z,21.56
2018-12-30T02:12:28.142Z,21.64
2018-12-30T02:13:28.092Z,21.64
2018-12-30T02:14:28.045Z,21.62
2018-12-30T02:15:27.997Z,21.62
2018-12-30T02:16:27.952Z,21.64
2018-12-30T02:17:27.907Z,21.47
2018-12-30T02:18:27.858Z,21.56
2018-12-30T02:19:27.811Z,21.59
2018-12-30T02:20:27.765Z,21.61
2018-12-30T02:21:27.718Z,21.61
2018-12-30T02:22:27.672Z,21.58
2018-12-30T02:23:27.627Z,21.52
2018-12-30T02:24:27.581Z,21.62
2018-12-30T02:25:27.582Z,21.62
2018-12-30T02:26:27.486Z,21.64
2018-12-30T02:27:27.438Z,21.58
2018-12-30T02:28:27.390Z,21.61
2018-12-30T02:29:27.344Z,21.58
2018-12-30T02:30:27.298Z,21.59
2018-12-30T02:31:27.252Z,21.56
2018-12-30T02:32:27.204Z,21.64
2018-12-30T02:33:27.159Z,21.59
2018-12-30T02:34:27.118Z,21.56
2018-12-30T02:35:27.067Z,21.59
2018-12-30T02:36:27.017Z,21.59
2018-12-30T02:37:26.971Z,21.64
2018-12-30T02:38:26.923Z,21.61
2018-12-30T02:39:26.883Z,21.62
2018-12-30T02:40:26.832Z,21.61
2018-12-30T02:41:26.786Z,21.50
2018-12-30T02:42:26.739Z,21.62
2018-12-30T02:43:26.691Z,21.59
2018-12-30T02:44:26.650Z,21.62
2018-12-30T02:45:26.598Z,21.65
2018-12-30T02:46:26.660Z,21.58
2018-12-30T02:47:26.504Z,21.69
2018-12-30T02:48:26.459Z,21.62
2018-12-30T02:49:26.411Z,21.65
2018-12-30T02:50:26.364Z,21.59
2018-12-30T02:51:26.317Z,21.61
2018-12-30T02:52:26.270Z,21.64
2018-12-30T02:53:26.225Z,21.56
2018-12-30T02:54:26.177Z,21.65
2018-12-30T02:55:26.132Z,21.64
2018-12-30T02:56:26.084Z,21.58
2018-12-30T02:57:26.038Z,21.62
2018-12-30T02:58:25.992Z,21.62
2018-12-30T02:59:25.951Z,21.62
2018-12-30T03:00:25.900Z,21.68
2018-12-30T03:01:25.851Z,21.61
2018-12-30T03:02:25.805Z,21.64
2018-12-30T03:03:25.765Z,21.67
2018-12-30T03:04:25.711Z,21.58
2018-12-30T03:05:25.666Z,21.59
2018-12-30T03:06:25.617Z,21.65
2018-12-30T03:07:25.570Z,21.65
2018-12-30T03:08:25.524Z,21.62
2018-12-30T03:09:25.588Z,21.64
2018-12-30T03:10:25.442Z,21.58
2018-12-30T03:11:25.384Z,21.59
2018-12-30T03:12:25.338Z,21.65
2018-12-30T03:13:25.291Z,21.62
2018-12-30T03:14:25.245Z,21.59
2018-12-30T03:15:25.200Z,21.62
2018-12-30T03:16:25.151Z,21.61
2018-12-30T03:17:25.104Z,21.62
2018-12-30T03:18:25.057Z,21.62
2018-12-30T03:19:25.010Z,21.61
2018-12-30T03:20:24.966Z,21.62
2018-12-30T03:21:24.923Z,21.58
2018-12-30T03:22:24.873Z,21.64
2018-12-30T03:23:24.824Z,21.58
2018-12-30T03:24:24.777Z,21.59
2018-12-30T03:25:24.731Z,21.61
2018-12-30T03:26:24.683Z,21.61
2018-12-30T03:27:24.645Z,21.59
2018-12-30T03:28:24.591Z,21.68
2018-12-30T03:29:24.545Z,21.72
2018-12-30T03:30:24.498Z,21.67
2018-12-30T03:31:24.781Z,21.58
2018-12-30T03:32:24.725Z,21.56
2018-12-30T03:33:24.358Z,21.64
2018-12-30T03:34:24.314Z,21.59
2018-12-30T03:35:24.264Z,21.59
2018-12-30T03:36:24.217Z,21.58
2018-12-30T03:37:24.171Z,21.69
2018-12-30T03:38:24.125Z,21.67
2018-12-30T03:39:24.077Z,21.65
2018-12-30T03:40:24.032Z,21.64
2018-12-30T03:41:23.984Z,21.67
2018-12-30T03:42:23.937Z,21.69
2018-12-30T03:43:23.889Z,21.64
2018-12-30T03:44:23.849Z,21.64
2018-12-30T03:45:23.797Z,21.59
2018-12-30T03:46:23.749Z,21.59
2018-12-30T03:47:23.704Z,21.62
2018-12-30T03:48:23.661Z,21.61
2018-12-30T03:49:23.612Z,21.64
2018-12-30T03:50:23.612Z,21.69
2018-12-30T03:51:23.517Z,21.68
2018-12-30T03:52:23.472Z,21.74
2018-12-30T03:53:23.424Z,21.67
2018-12-30T03:54:23.378Z,21.61
2018-12-30T03:55:23.332Z,21.67
2018-12-30T03:56:23.284Z,21.67
2018-12-30T03:57:23.238Z,21.62
2018-12-30T03:58:23.190Z,21.61
2018-12-30T03:59:23.144Z,21.69
2018-12-30T04:00:23.096Z,21.68
2018-12-30T04:01:23.051Z,21.75
2018-12-30T04:02:23.002Z,21.62
2018-12-30T04:03:22.957Z,21.62
2018-12-30T04:04:22.910Z,21.64
2018-12-30T04:05:22.867Z,21.69
2018-12-30T04:06:22.817Z,21.65
2018-12-30T04:07:22.770Z,21.77
2018-12-30T04:08:22.725Z,21.64
2018-12-30T04:09:22.678Z,21.64
2018-12-30T04:10:22.636Z,21.72
2018-12-30T04:11:22.586Z,21.61
2018-12-30T04:12:22.537Z,21.75
2018-12-30T04:13:22.491Z,21.69
2018-12-30T04:14:22.442Z,21.68
2018-12-30T04:15:22.408Z,21.69
2018-12-30T04:16:22.350Z,21.68
2018-12-30T04:17:22.305Z,21.75
2018-12-30T04:18:22.257Z,21.65
2018-12-30T04:19:22.211Z,21.64
2018-12-30T04:20:22.173Z,21.75
2018-12-30T04:21:22.118Z,21.65
2018-12-30T04:22:22.074Z,21.64
2018-12-30T04:23:22.024Z,21.67
2018-12-30T04:24:21.976Z,21.67
2018-12-30T04:25:21.931Z,21.68
2018-12-30T04:26:21.892Z,21.65
2018-12-30T04:27:24.871Z,21.69
2018-12-30T04:28:21.790Z,21.72
2018-12-30T04:29:21.743Z,21.58
2018-12-30T04:30:21.697Z,21.69
2018-12-30T04:31:21.652Z,21.75
2018-12-30T04:32:21.654Z,21.67
2018-12-30T04:33:21.608Z,21.64
2018-12-30T04:34:21.510Z,21.68
2018-12-30T04:35:21.463Z,21.64
2018-12-30T04:36:21.418Z,21.64
2018-12-30T04:37:21.371Z,21.67
2018-12-30T04:38:21.324Z,21.67
2018-12-30T04:39:21.277Z,21.67
2018-12-30T04:40:21.230Z,21.65
2018-12-30T04:41:21.186Z,21.64
2018-12-30T04:42:21.136Z,21.65
2018-12-30T04:43:21.091Z,21.64
2018-12-30T04:44:21.112Z,21.69
2018-12-30T04:45:20.997Z,21.69
2018-12-30T04:46:20.950Z,21.74
2018-12-30T04:47:20.910Z,21.69
2018-12-30T04:48:20.857Z,21.65
2018-12-30T04:49:20.812Z,21.69
2018-12-30T04:50:20.763Z,21.74
2018-12-30T04:51:20.717Z,21.69
2018-12-30T04:52:25.570Z,21.75
2018-12-30T04:53:20.623Z,21.69
2018-12-30T04:54:20.577Z,21.65
2018-12-30T04:55:20.530Z,21.69
2018-12-30T04:56:20.483Z,21.69
2018-12-30T04:57:20.440Z,21.62
2018-12-30T04:58:20.389Z,21.67
2018-12-30T04:59:20.343Z,21.61
2018-12-30T05:00:20.297Z,21.67
2018-12-30T05:01:20.251Z,21.65
2018-12-30T05:02:20.205Z,21.71
2018-12-30T05:03:20.156Z,21.80
2018-12-30T05:04:20.112Z,21.69
2018-12-30T05:05:20.064Z,21.71
2018-12-30T05:06:20.024Z,21.74
2018-12-30T05:07:19.970Z,21.56
2018-12-30T05:08:19.924Z,21.71
2018-12-30T05:09:19.876Z,21.75
2018-12-30T05:10:19.832Z,21.67
2018-12-30T05:11:19.788Z,21.74
2018-12-30T05:12:19.738Z,21.71
2018-12-30T05:13:19.690Z,21.68
2018-12-30T05:14:19.643Z,21.67
2018-12-30T05:15:19.596Z,21.59
2018-12-30T05:16:19.603Z,21.68
2018-12-30T05:17:19.503Z,21.72
2018-12-30T05:18:19.472Z,21.74
2018-12-30T05:19:19.410Z,21.72
2018-12-30T05:20:19.365Z,21.67
2018-12-30T05:21:19.318Z,21.74
2018-12-30T05:22:19.270Z,21.59
2018-12-30T05:23:19.224Z,21.65
2018-12-30T05:24:19.179Z,21.69
2018-12-30T05:25:19.130Z,21.65
2018-12-30T05:26:19.083Z,21.74
2018-12-30T05:27:19.036Z,21.67
2018-12-30T05:28:19.063Z,21.74
2018-12-30T05:29:18.945Z,21.67
2018-12-30T05:30:18.898Z,21.69
2018-12-30T05:31:18.850Z,21.71
2018-12-30T05:32:18.804Z,21.75
2018-12-30T05:33:18.767Z,21.69
2018-12-30T05:34:18.710Z,21.68
2018-12-30T05:35:18.664Z,21.67
2018-12-30T05:36:18.667Z,21.62
2018-12-30T05:37:18.621Z,21.69
2018-12-30T05:38:18.522Z,21.69
2018-12-30T05:39:18.477Z,21.69
2018-12-30T05:40:18.435Z,21.67
2018-12-30T05:41:18.385Z,21.65
2018-12-30T05:42:18.337Z,21.80
2018-12-30T05:43:18.290Z,21.64
2018-12-30T05:44:18.244Z,21.64
2018-12-30T05:45:18.204Z,21.74
2018-12-30T05:46:18.150Z,21.68
2018-12-30T05:47:18.103Z,21.75
2018-12-30T05:48:18.057Z,21.68
2018-12-30T05:49:18.010Z,21.69
2018-12-30T05:50:17.963Z,21.67
2018-12-30T05:51:17.995Z,21.62
2018-12-30T05:52:17.870Z,21.68
2018-12-30T05:53:17.824Z,21.65
2018-12-30T05:54:17.776Z,21.69
2018-12-30T05:55:17.730Z,21.64
2018-12-30T05:56:17.683Z,21.59
2018-12-30T05:57:17.687Z,21.67
2018-12-30T05:58:17.588Z,21.71
2018-12-30T05:59:17.543Z,21.67
2018-12-30T06:00:17.496Z,21.72
2018-12-30T06:01:17.450Z,21.75
2018-12-30T06:02:17.403Z,21.71
2018-12-30T06:03:17.356Z,21.71
2018-12-30T06:04:17.309Z,21.74
2018-12-30T06:05:17.264Z,21.64
2018-12-30T06:06:17.216Z,21.77
2018-12-30T06:07:18.171Z,21.64
2018-12-30T06:08:17.123Z,21.69
2018-12-30T06:09:17.076Z,21.61
2018-12-30T06:10:17.028Z,21.65
2018-12-30T06:11:16.983Z,21.77
2018-12-30T06:12:16.938Z,21.62
2018-12-30T06:13:16.890Z,21.69
2018-12-30T06:14:16.842Z,21.64
2018-12-30T06:15:16.799Z,21.72
2018-12-30T06:16:16.754Z,21.71
2018-12-30T06:17:16.703Z,21.65
2018-12-30T06:18:16.656Z,21.68
2018-12-30T06:19:16.609Z,21.65
2018-12-30T06:20:16.562Z,21.79
2018-12-30T06:21:16.516Z,21.69
2018-12-30T06:22:16.470Z,21.62
2018-12-30T06:23:16.425Z,21.72
2018-12-30T06:24:16.376Z,21.71
2018-12-30T06:25:16.333Z,21.64
2018-12-30T06:26:16.282Z,21.72
2018-12-30T06:27:16.235Z,21.75
2018-12-30T06:28:16.189Z,21.75
2018-12-30T06:29:16.149Z,21.64
2018-12-30T06:30:16.095Z,21.69
2018-12-30T06:31:16.048Z,21.72
2018-12-30T06:32:16.004Z,21.65
2018-12-30T06:33:15.956Z,21.67
2018-12-30T06:34:15.910Z,21.64
2018-12-30T06:35:15.862Z,21.61
2018-12-30T06:36:15.816Z,21.69
2018-12-30T06:37:15.769Z,21.65
2018-12-30T06:38:15.721Z,21.65
2018-12-30T06:39:15.675Z,21.72
2018-12-30T06:40:15.628Z,21.71
2018-12-30T06:41:15.581Z,21.65
2018-12-30T06:42:15.534Z,21.65
2018-12-30T06:43:15.488Z,21.69
2018-12-30T06:44:15.442Z,21.68
2018-12-30T06:45:15.395Z,21.65
2018-12-30T06:46:15.350Z,21.64
2018-12-30T06:47:15.301Z,21.72
2018-12-30T06:48:15.255Z,21.61
2018-12-30T06:49:15.207Z,21.65
2018-12-30T06:50:15.162Z,21.69
2018-12-30T06:51:15.114Z,21.75
2018-12-30T06:52:15.068Z,21.77
2018-12-30T06:53:15.021Z,21.65
2018-12-30T06:54:14.982Z,21.75
2018-12-30T06:55:14.928Z,21.72
2018-12-30T06:56:14.882Z,21.79
2018-12-30T06:57:14.834Z,21.67
2018-12-30T06:58:14.788Z,21.62
2018-12-30T06:59:14.741Z,21.64
2018-12-30T07:00:14.695Z,21.65
2018-12-30T07:01:14.972Z,21.65
2018-12-30T07:02:14.603Z,21.67
2018-12-30T07:03:14.605Z,21.67
2018-12-30T07:04:14.509Z,21.67
2018-12-30T07:05:14.462Z,21.67
2018-12-30T07:06:14.414Z,21.74
2018-12-30T07:07:14.370Z,21.67
2018-12-30T07:08:14.321Z,21.68
2018-12-30T07:09:14.275Z,21.75
2018-12-30T07:10:14.229Z,21.69
2018-12-30T07:11:14.182Z,21.68
2018-12-30T07:12:14.134Z,21.64
2018-12-30T07:13:14.090Z,21.61
2018-12-30T07:14:14.041Z,21.64
2018-12-30T07:15:13.994Z,21.67
2018-12-30T07:16:13.948Z,21.68
2018-12-30T07:17:13.902Z,21.68
2018-12-30T07:18:13.855Z,21.67
2018-12-30T07:19:13.808Z,21.65
2018-12-30T07:20:13.762Z,21.65
2018-12-30T07:21:13.715Z,21.62
2018-12-30T07:22:13.706Z,21.61
2018-12-30T07:23:13.621Z,21.64
2018-12-30T07:24:13.575Z,21.72
2018-12-30T07:25:13.578Z,21.67
2018-12-30T07:26:13.481Z,21.69
2018-12-30T07:27:13.437Z,21.68
2018-12-30T07:28:13.388Z,21.65
2018-12-30T07:29:13.342Z,21.69
2018-12-30T07:30:13.296Z,21.69
2018-12-30T07:31:13.248Z,21.62
2018-12-30T07:32:13.201Z,21.71
2018-12-30T07:33:13.156Z,21.64
2018-12-30T07:34:13.108Z,21.71
2018-12-30T07:35:13.063Z,21.68
2018-12-30T07:36:13.014Z,21.75
2018-12-30T07:37:12.968Z,21.59
2018-12-30T07:38:12.922Z,21.65
2018-12-30T07:39:12.875Z,21.69
2018-12-30T07:40:12.827Z,21.62
2018-12-30T07:41:12.782Z,21.65
2018-12-30T07:42:12.733Z,21.61
2018-12-30T07:43:12.688Z,21.67
2018-12-30T07:44:12.643Z,21.68
2018-12-30T07:45:12.595Z,21.64
2018-12-30T07:46:12.548Z,21.65
2018-12-30T07:47:12.501Z,21.67
2018-12-30T07:48:12.455Z,21.75
2018-12-30T07:49:12.409Z,21.72
2018-12-30T07:50:12.361Z,21.72
2018-12-30T07:51:12.316Z,21.71
2018-12-30T07:52:12.268Z,21.72
2018-12-30T07:53:13.862Z,21.65
2018-12-30T07:54:12.174Z,21.72
2018-12-30T07:55:12.128Z,21.71
2018-12-30T07:56:12.081Z,21.68
2018-12-30T07:57:12.035Z,21.68
2018-12-30T07:58:11.992Z,21.65
2018-12-30T07:59:11.940Z,21.64
2018-12-30T08:00:11.896Z,21.61
2018-12-30T08:01:11.849Z,21.64
2018-12-30T08:02:11.801Z,21.58
2018-12-30T08:03:11.756Z,21.69
2018-12-30T08:04:11.708Z,21.68
2018-12-30T08:05:11.661Z,21.65
2018-12-30T08:06:11.614Z,21.68
2018-12-30T08:07:11.567Z,21.58
2018-12-30T08:08:11.571Z,21.65
2018-12-30T08:09:11.475Z,21.65
2018-12-30T08:10:11.427Z,21.65
2018-12-30T08:11:11.382Z,21.62
2018-12-30T08:12:11.335Z,21.67
2018-12-30T08:13:11.289Z,21.68
2018-12-30T08:14:11.241Z,21.74
2018-12-30T08:15:11.194Z,21.68
2018-12-30T08:16:11.147Z,21.69
2018-12-30T08:17:11.101Z,21.62
2018-12-30T08:18:11.054Z,21.65
2018-12-30T08:19:11.008Z,21.65
2018-12-30T08:20:10.962Z,21.67
2018-12-30T08:21:10.921Z,21.68
2018-12-30T08:22:10.867Z,21.67
2018-12-30T08:23:10.821Z,21.67
2018-12-30T08:24:10.775Z,21.69
2018-12-30T08:25:10.729Z,21.75
2018-12-30T08:26:10.681Z,21.67
2018-12-30T08:27:10.634Z,21.69
2018-12-30T08:28:10.588Z,21.79
2018-12-30T08:29:10.541Z,21.64
2018-12-30T08:30:10.494Z,21.74
2018-12-30T08:31:10.448Z,21.64
2018-12-30T08:32:10.401Z,21.65
2018-12-30T08:33:10.357Z,21.67
2018-12-30T08:34:10.307Z,21.72
2018-12-30T08:35:10.261Z,21.65
2018-12-30T08:36:10.215Z,21.56
2018-12-30T08:37:10.170Z,21.62
2018-12-30T08:38:10.120Z,21.77
2018-12-30T08:39:10.074Z,21.68
2018-12-30T08:40:10.028Z,21.67
2018-12-30T08:41:09.981Z,21.69
2018-12-30T08:42:09.934Z,21.67
2018-12-30T08:43:09.888Z,21.67
2018-12-30T08:44:09.881Z,21.59
2018-12-30T08:45:09.795Z,21.69
2018-12-30T08:46:09.747Z,21.67
2018-12-30T08:47:09.701Z,21.71
2018-12-30T08:48:09.655Z,21.71
2018-12-30T08:49:09.608Z,21.71
2018-12-30T08:50:09.610Z,21.68
2018-12-30T08:51:10.356Z,21.67
2018-12-30T08:52:09.467Z,21.65
2018-12-30T08:53:09.422Z,21.69
2018-12-30T08:54:09.374Z,21.68
2018-12-30T08:55:09.328Z,21.77
2018-12-30T08:56:09.281Z,21.68
2018-12-30T08:57:09.235Z,21.74
2018-12-30T08:58:09.190Z,21.68
2018-12-30T08:59:09.140Z,21.67
2018-12-30T09:00:09.094Z,21.68
2018-12-30T09:01:09.048Z,21.69
2018-12-30T09:02:08.999Z,21.72
2018-12-30T09:03:08.953Z,21.68
2018-12-30T09:04:08.910Z,21.69
2018-12-30T09:05:08.861Z,21.72
2018-12-30T09:06:08.814Z,21.68
2018-12-30T09:07:08.767Z,21.69
2018-12-30T09:08:08.721Z,21.67
2018-12-30T09:09:08.675Z,21.68
2018-12-30T09:10:08.626Z,21.69
2018-12-30T09:11:08.631Z,21.77
2018-12-30T09:12:08.534Z,21.64
2018-12-30T09:13:08.488Z,21.71
2018-12-30T09:14:08.446Z,21.67
2018-12-30T09:15:08.393Z,21.67
2018-12-30T09:16:08.348Z,21.68
2018-12-30T09:17:08.302Z,21.56
2018-12-30T09:18:08.254Z,21.77
2018-12-30T09:19:08.208Z,21.68
2018-12-30T09:20:08.161Z,21.59
2018-12-30T09:21:08.114Z,21.80
2018-12-30T09:22:08.067Z,21.56
2018-12-30T09:23:08.021Z,21.68
2018-12-30T09:24:07.976Z,21.69
2018-12-30T09:25:07.928Z,21.74
2018-12-30T09:26:07.881Z,21.69
2018-12-30T09:27:07.834Z,21.61
2018-12-30T09:28:07.788Z,21.62
2018-12-30T09:29:07.742Z,21.68
2018-12-30T09:30:07.698Z,21.69
2018-12-30T09:31:07.647Z,21.72
2018-12-30T09:32:07.602Z,21.62
2018-12-30T09:33:07.606Z,21.72
2018-12-30T09:34:07.510Z,21.62
2018-12-30T09:35:07.465Z,21.67
2018-12-30T09:36:07.415Z,21.61
2018-12-30T09:37:07.373Z,21.75
2018-12-30T09:38:07.328Z,21.77
2018-12-30T09:39:07.274Z,21.68
2018-12-30T09:40:07.229Z,21.75
2018-12-30T09:41:07.181Z,21.67
2018-12-30T09:42:07.134Z,21.72
2018-12-30T09:43:07.089Z,21.74
2018-12-30T09:44:07.041Z,21.72
2018-12-30T09:45:07.001Z,21.69
2018-12-30T09:46:06.948Z,21.80
2018-12-30T09:47:06.902Z,21.75
2018-12-30T09:48:06.858Z,21.72
2018-12-30T09:49:06.809Z,21.71
2018-12-30T09:50:06.762Z,21.77
2018-12-30T09:51:06.716Z,21.77
2018-12-30T09:52:06.669Z,21.72
2018-12-30T09:53:06.622Z,21.82
2018-12-30T09:54:06.575Z,21.74
2018-12-30T09:55:06.533Z,21.79
2018-12-30T09:56:06.482Z,21.75
2018-12-30T09:57:06.435Z,21.77
2018-12-30T09:58:06.389Z,21.69
2018-12-30T09:59:06.345Z,21.75
2018-12-30T10:00:06.296Z,21.82
2018-12-30T10:01:06.249Z,21.79
2018-12-30T10:02:06.202Z,21.83
2018-12-30T10:03:06.158Z,21.79
2018-12-30T10:04:06.109Z,21.77
2018-12-30T10:05:06.063Z,21.80
2018-12-30T10:06:06.016Z,21.86
2018-12-30T10:07:05.969Z,21.77
2018-12-30T10:08:05.923Z,21.83
2018-12-30T10:09:05.877Z,21.86
2018-12-30T10:10:05.829Z,21.90
2018-12-30T10:11:05.784Z,21.75
2018-12-30T10:12:05.737Z,21.90
2018-12-30T10:13:05.690Z,21.90
2018-12-30T10:14:05.643Z,21.90
2018-12-30T10:15:09.713Z,21.88
2018-12-30T10:16:05.601Z,21.88
2018-12-30T10:17:05.504Z,21.90
2018-12-30T10:18:05.456Z,21.90
2018-12-30T10:19:05.462Z,21.83
2018-12-30T10:20:05.364Z,21.84
2018-12-30T10:21:05.318Z,21.83
2018-12-30T10:22:05.270Z,21.82
2018-12-30T10:23:05.225Z,21.84
2018-12-30T10:24:05.178Z,21.83
2018-12-30T10:25:05.132Z,21.83
2018-12-30T10:26:05.084Z,21.84
2018-12-30T10:27:05.041Z,21.84
2018-12-30T10:28:04.992Z,21.84
2018-12-30T10:29:04.945Z,21.91
2018-12-30T10:30:04.898Z,21.90
2018-12-30T10:31:04.851Z,21.84
2018-12-30T10:32:04.806Z,21.92
2018-12-30T10:33:04.767Z,21.92
2018-12-30T10:34:04.714Z,21.90
2018-12-30T10:35:04.668Z,21.90
2018-12-30T10:36:04.619Z,21.88
2018-12-30T10:37:04.623Z,21.82
2018-12-30T10:38:04.575Z,21.88
2018-12-30T10:39:04.479Z,21.88
2018-12-30T10:40:04.433Z,21.82
2018-12-30T10:41:04.386Z,21.91
2018-12-30T10:42:04.340Z,21.90
2018-12-30T10:43:04.293Z,21.88
2018-12-30T10:44:04.246Z,21.84
2018-12-30T10:45:04.199Z,21.80
2018-12-30T10:46:04.153Z,21.88
2018-12-30T10:47:04.106Z,21.92
2018-12-30T10:48:04.060Z,21.88
2018-12-30T10:49:04.018Z,21.91
2018-12-30T10:50:03.967Z,21.91
2018-12-30T10:51:03.923Z,21.75
2018-12-30T10:52:03.873Z,21.92
2018-12-30T10:53:03.828Z,21.90
2018-12-30T10:54:03.781Z,21.86
2018-12-30T10:55:03.734Z,21.91
2018-12-30T10:56:03.689Z,21.84
2018-12-30T10:57:03.642Z,21.90
2018-12-30T10:58:03.594Z,21.99
2018-12-30T10:59:03.548Z,21.88
2018-12-30T11:00:03.502Z,21.84
2018-12-30T11:01:03.456Z,21.91
2018-12-30T11:02:03.408Z,21.98
2018-12-30T11:03:03.361Z,21.96
2018-12-30T11:04:03.315Z,21.90
2018-12-30T11:05:03.270Z,21.94
2018-12-30T11:06:03.223Z,21.90
2018-12-30T11:07:03.176Z,21.96
2018-12-30T11:08:03.133Z,21.91
2018-12-30T11:09:03.083Z,21.92
2018-12-30T11:10:03.036Z,21.90
2018-12-30T11:11:02.992Z,21.94
2018-12-30T11:12:02.943Z,21.94
2018-12-30T11:13:02.897Z,21.84
2018-12-30T11:14:02.850Z,21.96
2018-12-30T11:15:02.803Z,21.90
2018-12-30T11:16:02.758Z,21.90
2018-12-30T11:17:02.711Z,21.92
2018-12-30T11:18:02.664Z,21.90
2018-12-30T11:19:02.618Z,21.82
2018-12-30T11:20:02.571Z,21.79
2018-12-30T11:21:02.525Z,21.90
2018-12-30T11:22:02.478Z,21.90
2018-12-30T11:23:02.431Z,21.82
2018-12-30T11:24:08.556Z,21.88
2018-12-30T11:25:02.340Z,21.84
2018-12-30T11:26:02.290Z,21.84
2018-12-30T11:27:02.244Z,21.83
2018-12-30T11:28:02.199Z,21.82
2018-12-30T11:29:02.151Z,21.83
2018-12-30T11:30:02.105Z,21.82
2018-12-30T11:31:02.059Z,21.83
2018-12-30T11:32:02.014Z,21.83
2018-12-30T11:33:01.966Z,21.88
2018-12-30T11:34:01.920Z,21.82
2018-12-30T11:35:01.875Z,21.83
2018-12-30T11:36:01.826Z,21.82
2018-12-30T11:37:01.780Z,21.83
2018-12-30T11:38:01.732Z,21.79
2018-12-30T11:39:01.686Z,21.80
2018-12-30T11:40:01.641Z,21.84
2018-12-30T11:41:01.592Z,21.75
2018-12-30T11:42:01.549Z,21.82
2018-12-30T11:43:01.550Z,21.77
2018-12-30T11:44:01.453Z,21.80
2018-12-30T11:45:01.407Z,21.82
2018-12-30T11:46:01.361Z,21.80
2018-12-30T11:47:02.174Z,21.79
2018-12-30T11:48:01.267Z,21.82
2018-12-30T11:49:01.221Z,21.80
2018-12-30T11:50:01.172Z,21.83
2018-12-30T11:51:01.127Z,21.80
2018-12-30T11:52:01.084Z,21.82
2018-12-30T11:53:01.035Z,21.75
2018-12-30T11:54:00.987Z,21.90
2018-12-30T11:55:00.941Z,21.84
2018-12-30T11:56:00.897Z,21.83
2018-12-30T11:57:00.851Z,21.72
2018-12-30T11:58:00.801Z,21.84
2018-12-30T11:59:00.755Z,21.86
2018-12-30T12:00:00.709Z,21.80
2018-12-30T12:01:00.662Z,21.79
2018-12-30T12:02:00.615Z,21.86
2018-12-30T12:03:00.568Z,21.86
2018-12-30T12:04:00.522Z,21.83
2018-12-30T12:05:00.476Z,21.77
2018-12-30T12:06:00.428Z,21.69
2018-12-30T12:07:00.382Z,21.83
2018-12-30T12:08:00.335Z,21.80
2018-12-30T12:09:00.288Z,21.77
2018-12-30T12:10:00.242Z,21.80
2018-12-30T12:11:00.197Z,21.86
2018-12-30T12:12:00.151Z,21.77
2018-12-30T12:13:00.109Z,21.84
2018-12-30T12:14:00.056Z,21.74
2018-12-30T12:15:00.009Z,21.83
2018-12-30T12:15:59.963Z,21.80
2018-12-30T12:16:59.917Z,21.83
2018-12-30T12:17:59.869Z,21.82
2018-12-30T12:18:59.822Z,21.82
2018-12-30T12:19:59.776Z,21.79
2018-12-30T12:20:59.730Z,21.79
2018-12-30T12:21:59.783Z,21.82
2018-12-30T12:22:59.687Z,21.77
2018-12-30T12:23:59.690Z,21.79
2018-12-30T12:24:59.643Z,21.72
2018-12-30T12:25:59.496Z,21.75
2018-12-30T12:26:59.450Z,21.74
2018-12-30T12:27:59.410Z,21.86
2018-12-30T12:28:59.358Z,21.77
2018-12-30T12:29:59.312Z,21.84
2018-12-30T12:30:59.265Z,21.75
2018-12-30T12:31:59.220Z,21.77
2018-12-30T12:32:59.172Z,21.77
2018-12-30T12:33:59.124Z,21.82
2018-12-30T12:34:59.078Z,21.79
2018-12-30T12:35:59.031Z,21.84
2018-12-30T12:36:58.987Z,21.71
2018-12-30T12:37:58.939Z,21.75
2018-12-30T12:38:58.890Z,21.80
2018-12-30T12:39:58.845Z,21.79
2018-12-30T12:40:58.799Z,21.77
2018-12-30T12:41:58.800Z,21.82
2018-12-30T12:42:58.705Z,21.74
2018-12-30T12:43:58.709Z,21.83
2018-12-30T12:44:58.762Z,21.80
2018-12-30T12:45:58.714Z,21.80
2018-12-30T12:46:58.518Z,21.71
2018-12-30T12:47:58.475Z,21.83
2018-12-30T12:48:58.436Z,21.77
2018-12-30T12:49:58.379Z,21.82
2018-12-30T12:50:58.339Z,21.82
2018-12-30T12:51:58.284Z,21.80